sensor_id;sensor_type;location;lat;lon;timestamp;temperature;humidity
336;DHT22;156;48.738;9.228;2022-08-16T00:02:09;18.60;1.00
336;DHT22;156;48.738;9.228;2022-08-16T00:04:36;18.60;1.00
336;DHT22;156;48.738;9.228;2022-08-16T00:07:04;18.60;1.00
336;DHT22;156;48.738;9.228;2022-08-16T00:09:31;18.60;1.00
336;DHT22;156;48.738;9.228;2022-08-16T00:11:58;18.50;1.00
336;DHT22;156;48.738;9.228;2022-08-16T00:14:28;18.50;1.00
336;DHT22;156;48.738;9.228;2022-08-16T00:16:55;18.50;1.00
336;DHT22;156;48.738;9.228;2022-08-16T00:19:26;18.40;1.00
336;DHT22;156;48.738;9.228;2022-08-16T00:21:53;18.40;1.00
336;DHT22;156;48.738;9.228;2022-08-16T00:24:23;18.40;1.00
336;DHT22;156;48.738;9.228;2022-08-16T00:26:51;18.40;1.00
336;DHT22;156;48.738;9.228;2022-08-16T00:29:18;18.30;1.00
336;DHT22;156;48.738;9.228;2022-08-16T00:31:49;18.40;1.00
336;DHT22;156;48.738;9.228;2022-08-16T00:34:17;18.40;1.00
336;DHT22;156;48.738;9.228;2022-08-16T00:36:44;18.40;1.00
336;DHT22;156;48.738;9.228;2022-08-16T00:39:11;18.40;1.00
336;DHT22;156;48.738;9.228;2022-08-16T00:41:40;18.40;1.00
336;DHT22;156;48.738;9.228;2022-08-16T00:44:09;18.40;1.00
336;DHT22;156;48.738;9.228;2022-08-16T00:46:40;18.30;1.00
336;DHT22;156;48.738;9.228;2022-08-16T00:49:11;18.30;2.50
336;DHT22;156;48.738;9.228;2022-08-16T00:51:38;18.20;2.20
336;DHT22;156;48.738;9.228;2022-08-16T00:54:06;18.20;2.80
336;DHT22;156;48.738;9.228;2022-08-16T00:56:36;18.10;5.00
336;DHT22;156;48.738;9.228;2022-08-16T00:59:06;18.10;5.20
336;DHT22;156;48.738;9.228;2022-08-16T01:01:34;18.20;5.10
336;DHT22;156;48.738;9.228;2022-08-16T01:04:01;18.10;5.00
336;DHT22;156;48.738;9.228;2022-08-16T01:06:28;18.10;6.40
336;DHT22;156;48.738;9.228;2022-08-16T01:08:57;18.00;7.10
336;DHT22;156;48.738;9.228;2022-08-16T01:11:25;18.00;10.40
336;DHT22;156;48.738;9.228;2022-08-16T01:13:57;17.80;12.70
336;DHT22;156;48.738;9.228;2022-08-16T01:16:28;17.80;15.80
336;DHT22;156;48.738;9.228;2022-08-16T01:19:00;17.70;18.90
336;DHT22;156;48.738;9.228;2022-08-16T01:21:36;17.60;22.40
336;DHT22;156;48.738;9.228;2022-08-16T01:24:16;17.60;22.90
336;DHT22;156;48.738;9.228;2022-08-16T01:26:46;17.60;22.90
336;DHT22;156;48.738;9.228;2022-08-16T01:29:17;17.60;22.50
336;DHT22;156;48.738;9.228;2022-08-16T01:31:47;17.70;23.40
336;DHT22;156;48.738;9.228;2022-08-16T01:34:16;17.80;21.50
336;DHT22;156;48.738;9.228;2022-08-16T01:36:45;17.80;22.70
336;DHT22;156;48.738;9.228;2022-08-16T01:39:15;17.80;22.60
336;DHT22;156;48.738;9.228;2022-08-16T01:41:43;17.80;23.00
336;DHT22;156;48.738;9.228;2022-08-16T01:44:10;17.70;25.00
336;DHT22;156;48.738;9.228;2022-08-16T01:46:39;17.70;26.90
336;DHT22;156;48.738;9.228;2022-08-16T01:49:09;17.80;27.70
336;DHT22;156;48.738;9.228;2022-08-16T01:51:37;17.80;27.20
336;DHT22;156;48.738;9.228;2022-08-16T01:54:05;17.80;31.10
336;DHT22;156;48.738;9.228;2022-08-16T01:56:34;17.70;35.90
336;DHT22;156;48.738;9.228;2022-08-16T01:59:06;17.70;36.10
336;DHT22;156;48.738;9.228;2022-08-16T02:01:33;17.80;36.50
336;DHT22;156;48.738;9.228;2022-08-16T02:04:02;17.70;40.60
336;DHT22;156;48.738;9.228;2022-08-16T02:06:30;17.70;44.60
336;DHT22;156;48.738;9.228;2022-08-16T02:08:57;17.60;48.50
336;DHT22;156;48.738;9.228;2022-08-16T02:11:24;17.60;50.70
336;DHT22;156;48.738;9.228;2022-08-16T02:13:53;17.60;52.50
336;DHT22;156;48.738;9.228;2022-08-16T02:16:20;17.60;55.90
336;DHT22;156;48.738;9.228;2022-08-16T02:18:47;17.60;55.70
336;DHT22;156;48.738;9.228;2022-08-16T02:21:14;17.60;55.50
336;DHT22;156;48.738;9.228;2022-08-16T02:23:41;17.50;56.10
336;DHT22;156;48.738;9.228;2022-08-16T02:26:08;17.60;55.70
336;DHT22;156;48.738;9.228;2022-08-16T02:28:35;17.60;56.00
336;DHT22;156;48.738;9.228;2022-08-16T02:31:07;17.70;56.60
336;DHT22;156;48.738;9.228;2022-08-16T02:33:35;17.70;56.20
336;DHT22;156;48.738;9.228;2022-08-16T02:36:03;17.70;56.50
336;DHT22;156;48.738;9.228;2022-08-16T02:38:31;17.60;58.20
336;DHT22;156;48.738;9.228;2022-08-16T02:40:59;17.60;59.30
336;DHT22;156;48.738;9.228;2022-08-16T02:43:29;17.70;60.20
336;DHT22;156;48.738;9.228;2022-08-16T02:45:56;17.70;63.00
336;DHT22;156;48.738;9.228;2022-08-16T02:48:25;17.70;64.00
336;DHT22;156;48.738;9.228;2022-08-16T02:50:52;17.60;65.20
336;DHT22;156;48.738;9.228;2022-08-16T02:53:20;17.70;67.00
336;DHT22;156;48.738;9.228;2022-08-16T02:55:47;17.60;66.00
336;DHT22;156;48.738;9.228;2022-08-16T02:58:13;17.60;65.70
336;DHT22;156;48.738;9.228;2022-08-16T03:00:40;17.60;65.40
336;DHT22;156;48.738;9.228;2022-08-16T03:03:07;17.60;65.20
336;DHT22;156;48.738;9.228;2022-08-16T03:05:36;17.60;65.20
336;DHT22;156;48.738;9.228;2022-08-16T03:08:03;17.60;64.60
336;DHT22;156;48.738;9.228;2022-08-16T03:10:30;17.50;64.10
336;DHT22;156;48.738;9.228;2022-08-16T03:12:57;17.50;65.20
336;DHT22;156;48.738;9.228;2022-08-16T03:15:24;17.60;60.40
336;DHT22;156;48.738;9.228;2022-08-16T03:17:51;17.60;59.80
336;DHT22;156;48.738;9.228;2022-08-16T03:20:18;17.60;60.30
336;DHT22;156;48.738;9.228;2022-08-16T03:22:46;17.60;59.60
336;DHT22;156;48.738;9.228;2022-08-16T03:25:14;17.60;59.00
336;DHT22;156;48.738;9.228;2022-08-16T03:27:42;17.60;60.20
336;DHT22;156;48.738;9.228;2022-08-16T03:30:13;17.60;62.50
336;DHT22;156;48.738;9.228;2022-08-16T03:32:40;17.60;65.30
336;DHT22;156;48.738;9.228;2022-08-16T03:35:08;17.60;68.90
336;DHT22;156;48.738;9.228;2022-08-16T03:37:35;17.60;71.10
336;DHT22;156;48.738;9.228;2022-08-16T03:40:11;17.60;71.20
336;DHT22;156;48.738;9.228;2022-08-16T03:42:38;17.60;69.50
336;DHT22;156;48.738;9.228;2022-08-16T03:45:06;17.50;67.90
336;DHT22;156;48.738;9.228;2022-08-16T03:47:33;17.60;66.70
336;DHT22;156;48.738;9.228;2022-08-16T03:50:01;17.60;66.50
336;DHT22;156;48.738;9.228;2022-08-16T03:52:28;17.60;65.70
336;DHT22;156;48.738;9.228;2022-08-16T03:54:54;17.60;65.90
336;DHT22;156;48.738;9.228;2022-08-16T03:57:23;17.50;65.50
336;DHT22;156;48.738;9.228;2022-08-16T03:59:50;17.50;60.90
336;DHT22;156;48.738;9.228;2022-08-16T04:02:17;17.50;63.50
336;DHT22;156;48.738;9.228;2022-08-16T04:04:44;17.40;64.60
336;DHT22;156;48.738;9.228;2022-08-16T04:07:11;17.30;65.10
336;DHT22;156;48.738;9.228;2022-08-16T04:09:38;17.20;69.90
336;DHT22;156;48.738;9.228;2022-08-16T04:12:06;17.20;74.90
336;DHT22;156;48.738;9.228;2022-08-16T04:14:34;17.10;79.30
336;DHT22;156;48.738;9.228;2022-08-16T04:17:02;17.10;84.70
336;DHT22;156;48.738;9.228;2022-08-16T04:19:29;17.00;89.30
336;DHT22;156;48.738;9.228;2022-08-16T04:21:59;17.00;91.80
336;DHT22;156;48.738;9.228;2022-08-16T04:24:26;17.00;93.60
336;DHT22;156;48.738;9.228;2022-08-16T04:26:53;16.90;93.70
336;DHT22;156;48.738;9.228;2022-08-16T04:29:20;16.90;93.50
336;DHT22;156;48.738;9.228;2022-08-16T04:31:49;16.90;92.70
336;DHT22;156;48.738;9.228;2022-08-16T04:34:16;17.00;92.30
336;DHT22;156;48.738;9.228;2022-08-16T04:36:43;17.00;92.00
336;DHT22;156;48.738;9.228;2022-08-16T04:39:10;17.00;92.40
336;DHT22;156;48.738;9.228;2022-08-16T04:41:37;17.10;92.10
336;DHT22;156;48.738;9.228;2022-08-16T04:44:04;17.00;92.20
336;DHT22;156;48.738;9.228;2022-08-16T04:46:31;17.10;92.30
336;DHT22;156;48.738;9.228;2022-08-16T04:48:59;17.10;92.20
336;DHT22;156;48.738;9.228;2022-08-16T04:51:26;17.10;91.80
336;DHT22;156;48.738;9.228;2022-08-16T04:53:53;17.10;92.30
336;DHT22;156;48.738;9.228;2022-08-16T04:56:20;17.20;92.10
336;DHT22;156;48.738;9.228;2022-08-16T04:58:47;17.20;91.80
336;DHT22;156;48.738;9.228;2022-08-16T05:01:14;17.20;91.20
336;DHT22;156;48.738;9.228;2022-08-16T05:03:42;17.30;90.00
336;DHT22;156;48.738;9.228;2022-08-16T05:06:10;17.40;89.50
336;DHT22;156;48.738;9.228;2022-08-16T05:08:38;17.50;86.50
336;DHT22;156;48.738;9.228;2022-08-16T05:11:07;17.60;83.10
336;DHT22;156;48.738;9.228;2022-08-16T05:13:35;17.60;80.20
336;DHT22;156;48.738;9.228;2022-08-16T05:16:04;17.70;79.20
336;DHT22;156;48.738;9.228;2022-08-16T05:18:34;17.80;76.10
336;DHT22;156;48.738;9.228;2022-08-16T05:21:01;17.80;75.40
336;DHT22;156;48.738;9.228;2022-08-16T05:23:30;17.90;75.50
336;DHT22;156;48.738;9.228;2022-08-16T05:25:57;17.90;75.30
336;DHT22;156;48.738;9.228;2022-08-16T05:28:25;18.00;75.10
336;DHT22;156;48.738;9.228;2022-08-16T05:30:52;18.10;70.40
336;DHT22;156;48.738;9.228;2022-08-16T05:33:18;18.10;69.60
336;DHT22;156;48.738;9.228;2022-08-16T05:35:47;18.10;66.00
336;DHT22;156;48.738;9.228;2022-08-16T05:38:14;18.00;65.50
336;DHT22;156;48.738;9.228;2022-08-16T05:40:43;18.10;66.40
336;DHT22;156;48.738;9.228;2022-08-16T05:43:10;18.20;65.90
336;DHT22;156;48.738;9.228;2022-08-16T05:45:37;18.20;66.00
336;DHT22;156;48.738;9.228;2022-08-16T05:48:04;18.30;64.00
336;DHT22;156;48.738;9.228;2022-08-16T05:50:31;18.30;61.00
336;DHT22;156;48.738;9.228;2022-08-16T05:52:58;18.30;61.00
336;DHT22;156;48.738;9.228;2022-08-16T05:55:25;18.40;60.70
336;DHT22;156;48.738;9.228;2022-08-16T05:57:53;18.50;56.20
336;DHT22;156;48.738;9.228;2022-08-16T06:00:20;18.60;52.50
336;DHT22;156;48.738;9.228;2022-08-16T06:02:47;18.60;52.10
336;DHT22;156;48.738;9.228;2022-08-16T06:05:14;18.70;50.10
336;DHT22;156;48.738;9.228;2022-08-16T06:07:41;18.70;51.20
336;DHT22;156;48.738;9.228;2022-08-16T06:10:09;18.70;51.00
336;DHT22;156;48.738;9.228;2022-08-16T06:12:37;18.60;51.30
336;DHT22;156;48.738;9.228;2022-08-16T06:15:07;18.70;52.50
336;DHT22;156;48.738;9.228;2022-08-16T06:17:36;18.70;51.20
336;DHT22;156;48.738;9.228;2022-08-16T06:20:04;18.70;51.30
336;DHT22;156;48.738;9.228;2022-08-16T06:22:31;18.70;51.50
336;DHT22;156;48.738;9.228;2022-08-16T06:24:58;18.70;51.60
336;DHT22;156;48.738;9.228;2022-08-16T06:27:25;18.70;47.90
336;DHT22;156;48.738;9.228;2022-08-16T06:29:52;18.70;46.40
336;DHT22;156;48.738;9.228;2022-08-16T06:32:20;18.70;47.50
336;DHT22;156;48.738;9.228;2022-08-16T06:34:47;18.80;45.80
336;DHT22;156;48.738;9.228;2022-08-16T06:37:15;18.80;44.80
336;DHT22;156;48.738;9.228;2022-08-16T06:39:42;18.80;43.10
336;DHT22;156;48.738;9.228;2022-08-16T06:42:09;18.90;42.40
336;DHT22;156;48.738;9.228;2022-08-16T06:44:36;18.90;42.40
336;DHT22;156;48.738;9.228;2022-08-16T06:47:03;19.10;42.30
336;DHT22;156;48.738;9.228;2022-08-16T06:49:31;19.20;37.40
336;DHT22;156;48.738;9.228;2022-08-16T06:51:58;19.20;36.70
336;DHT22;156;48.738;9.228;2022-08-16T06:54:25;19.30;36.40
336;DHT22;156;48.738;9.228;2022-08-16T06:56:52;19.30;37.60
336;DHT22;156;48.738;9.228;2022-08-16T06:59:19;19.40;34.80
336;DHT22;156;48.738;9.228;2022-08-16T07:01:46;19.40;34.90
336;DHT22;156;48.738;9.228;2022-08-16T07:04:14;19.50;33.90
336;DHT22;156;48.738;9.228;2022-08-16T07:06:42;19.60;34.30
336;DHT22;156;48.738;9.228;2022-08-16T07:09:10;19.70;31.70
336;DHT22;156;48.738;9.228;2022-08-16T07:11:38;19.80;28.40
336;DHT22;156;48.738;9.228;2022-08-16T07:14:06;19.80;26.70
336;DHT22;156;48.738;9.228;2022-08-16T07:16:33;19.90;27.90
336;DHT22;156;48.738;9.228;2022-08-16T07:19:00;20.00;24.30
336;DHT22;156;48.738;9.228;2022-08-16T07:21:27;20.10;21.70
336;DHT22;156;48.738;9.228;2022-08-16T07:23:55;20.20;18.90
336;DHT22;156;48.738;9.228;2022-08-16T07:26:24;20.40;16.80
336;DHT22;156;48.738;9.228;2022-08-16T07:28:51;20.50;12.40
336;DHT22;156;48.738;9.228;2022-08-16T07:31:19;20.50;12.70
336;DHT22;156;48.738;9.228;2022-08-16T07:33:46;20.50;17.00
336;DHT22;156;48.738;9.228;2022-08-16T07:36:14;20.70;13.50
336;DHT22;156;48.738;9.228;2022-08-16T07:38:42;20.70;13.10
336;DHT22;156;48.738;9.228;2022-08-16T07:41:11;20.90;12.20
336;DHT22;156;48.738;9.228;2022-08-16T07:43:38;21.00;12.60
336;DHT22;156;48.738;9.228;2022-08-16T07:46:05;21.10;12.50
336;DHT22;156;48.738;9.228;2022-08-16T07:48:32;21.20;12.90
336;DHT22;156;48.738;9.228;2022-08-16T07:50:59;21.30;5.40
336;DHT22;156;48.738;9.228;2022-08-16T07:53:27;21.40;5.30
336;DHT22;156;48.738;9.228;2022-08-16T07:55:55;21.50;4.40
336;DHT22;156;48.738;9.228;2022-08-16T07:58:24;21.50;1.00
336;DHT22;156;48.738;9.228;2022-08-16T08:00:52;21.60;1.00
336;DHT22;156;48.738;9.228;2022-08-16T08:03:19;21.70;1.00
336;DHT22;156;48.738;9.228;2022-08-16T08:05:46;21.90;1.00
336;DHT22;156;48.738;9.228;2022-08-16T08:08:13;22.10;1.00
336;DHT22;156;48.738;9.228;2022-08-16T08:10:40;22.10;1.00
336;DHT22;156;48.738;9.228;2022-08-16T08:13:07;22.20;1.00
336;DHT22;156;48.738;9.228;2022-08-16T08:15:35;22.30;1.00
336;DHT22;156;48.738;9.228;2022-08-16T08:18:03;22.50;1.00
336;DHT22;156;48.738;9.228;2022-08-16T08:20:30;22.70;1.00
336;DHT22;156;48.738;9.228;2022-08-16T08:22:58;22.90;1.00
336;DHT22;156;48.738;9.228;2022-08-16T08:25:25;22.80;1.00
336;DHT22;156;48.738;9.228;2022-08-16T08:27:52;23.00;1.00
336;DHT22;156;48.738;9.228;2022-08-16T08:30:19;23.10;1.00
336;DHT22;156;48.738;9.228;2022-08-16T08:32:47;23.30;1.00
336;DHT22;156;48.738;9.228;2022-08-16T08:35:14;23.40;1.00
336;DHT22;156;48.738;9.228;2022-08-16T08:37:41;23.50;1.00
336;DHT22;156;48.738;9.228;2022-08-16T08:40:10;23.40;1.00
336;DHT22;156;48.738;9.228;2022-08-16T08:42:37;23.50;1.00
336;DHT22;156;48.738;9.228;2022-08-16T08:45:06;23.50;1.00
336;DHT22;156;48.738;9.228;2022-08-16T08:47:34;23.10;1.00
336;DHT22;156;48.738;9.228;2022-08-16T08:50:02;23.00;1.00
336;DHT22;156;48.738;9.228;2022-08-16T08:52:29;23.00;1.00
336;DHT22;156;48.738;9.228;2022-08-16T08:54:56;23.00;1.00
336;DHT22;156;48.738;9.228;2022-08-16T08:57:24;23.10;1.00
336;DHT22;156;48.738;9.228;2022-08-16T08:59:50;23.30;1.00
336;DHT22;156;48.738;9.228;2022-08-16T09:02:19;23.50;1.00
336;DHT22;156;48.738;9.228;2022-08-16T09:04:46;23.80;1.00
336;DHT22;156;48.738;9.228;2022-08-16T09:07:14;23.90;1.00
336;DHT22;156;48.738;9.228;2022-08-16T09:09:42;23.90;1.00
336;DHT22;156;48.738;9.228;2022-08-16T09:12:09;23.90;1.00
336;DHT22;156;48.738;9.228;2022-08-16T09:14:36;24.10;1.00
336;DHT22;156;48.738;9.228;2022-08-16T09:17:04;24.20;1.00
336;DHT22;156;48.738;9.228;2022-08-16T09:19:31;24.40;1.00
336;DHT22;156;48.738;9.228;2022-08-16T09:21:59;24.70;1.00
336;DHT22;156;48.738;9.228;2022-08-16T09:24:27;24.90;1.00
336;DHT22;156;48.738;9.228;2022-08-16T09:26:54;24.90;1.00
336;DHT22;156;48.738;9.228;2022-08-16T09:29:21;24.60;1.00
336;DHT22;156;48.738;9.228;2022-08-16T09:31:48;24.30;1.00
336;DHT22;156;48.738;9.228;2022-08-16T09:34:15;24.30;1.00
336;DHT22;156;48.738;9.228;2022-08-16T09:36:42;24.20;1.00
336;DHT22;156;48.738;9.228;2022-08-16T09:39:09;23.80;1.00
336;DHT22;156;48.738;9.228;2022-08-16T09:41:37;23.80;1.00
336;DHT22;156;48.738;9.228;2022-08-16T09:44:05;23.50;1.00
336;DHT22;156;48.738;9.228;2022-08-16T09:46:32;23.30;1.00
336;DHT22;156;48.738;9.228;2022-08-16T09:48:59;23.10;1.00
336;DHT22;156;48.738;9.228;2022-08-16T09:51:26;22.90;1.00
336;DHT22;156;48.738;9.228;2022-08-16T09:53:54;22.70;1.00
336;DHT22;156;48.738;9.228;2022-08-16T09:56:26;22.80;1.00
336;DHT22;156;48.738;9.228;2022-08-16T09:58:58;22.90;1.00
336;DHT22;156;48.738;9.228;2022-08-16T10:01:25;23.20;1.00
336;DHT22;156;48.738;9.228;2022-08-16T10:03:53;23.40;1.00
336;DHT22;156;48.738;9.228;2022-08-16T10:06:22;23.60;1.00
336;DHT22;156;48.738;9.228;2022-08-16T10:08:49;23.60;1.00
336;DHT22;156;48.738;9.228;2022-08-16T10:11:17;23.90;1.00
336;DHT22;156;48.738;9.228;2022-08-16T10:14:04;24.20;1.00
336;DHT22;156;48.738;9.228;2022-08-16T10:16:31;24.50;1.00
336;DHT22;156;48.738;9.228;2022-08-16T10:18:58;24.50;1.00
336;DHT22;156;48.738;9.228;2022-08-16T10:21:25;24.80;1.00
336;DHT22;156;48.738;9.228;2022-08-16T10:23:52;25.10;1.00
336;DHT22;156;48.738;9.228;2022-08-16T10:26:20;25.30;1.00
336;DHT22;156;48.738;9.228;2022-08-16T10:28:49;25.60;1.00
336;DHT22;156;48.738;9.228;2022-08-16T10:31:17;25.80;1.00
336;DHT22;156;48.738;9.228;2022-08-16T10:33:44;25.60;1.00
336;DHT22;156;48.738;9.228;2022-08-16T10:36:11;25.60;1.00
336;DHT22;156;48.738;9.228;2022-08-16T10:38:40;25.70;1.00
336;DHT22;156;48.738;9.228;2022-08-16T10:41:07;25.70;1.00
336;DHT22;156;48.738;9.228;2022-08-16T10:43:35;25.80;1.00
336;DHT22;156;48.738;9.228;2022-08-16T10:46:03;25.70;1.00
336;DHT22;156;48.738;9.228;2022-08-16T10:48:32;26.00;1.00
336;DHT22;156;48.738;9.228;2022-08-16T10:50:58;26.00;1.00
336;DHT22;156;48.738;9.228;2022-08-16T10:53:26;26.10;1.00
336;DHT22;156;48.738;9.228;2022-08-16T10:55:53;26.20;1.00
336;DHT22;156;48.738;9.228;2022-08-16T10:58:20;26.00;1.00
336;DHT22;156;48.738;9.228;2022-08-16T11:00:47;25.90;1.00
336;DHT22;156;48.738;9.228;2022-08-16T11:03:14;26.00;1.00
336;DHT22;156;48.738;9.228;2022-08-16T11:05:43;26.00;1.00
336;DHT22;156;48.738;9.228;2022-08-16T11:08:10;25.90;1.00
336;DHT22;156;48.738;9.228;2022-08-16T11:10:39;26.20;1.00
336;DHT22;156;48.738;9.228;2022-08-16T11:13:07;26.30;1.00
336;DHT22;156;48.738;9.228;2022-08-16T11:15:35;26.30;1.00
336;DHT22;156;48.738;9.228;2022-08-16T11:18:03;25.70;1.00
336;DHT22;156;48.738;9.228;2022-08-16T11:20:31;25.80;1.00
336;DHT22;156;48.738;9.228;2022-08-16T11:22:59;25.80;1.00
336;DHT22;156;48.738;9.228;2022-08-16T11:25:29;25.80;1.00
336;DHT22;156;48.738;9.228;2022-08-16T11:27:57;26.00;1.00
336;DHT22;156;48.738;9.228;2022-08-16T11:30:25;26.20;1.00
336;DHT22;156;48.738;9.228;2022-08-16T11:32:52;26.30;1.00
336;DHT22;156;48.738;9.228;2022-08-16T11:35:21;26.20;1.00
336;DHT22;156;48.738;9.228;2022-08-16T11:37:52;26.00;1.00
336;DHT22;156;48.738;9.228;2022-08-16T11:40:22;26.30;1.00
336;DHT22;156;48.738;9.228;2022-08-16T11:42:50;26.50;1.00
336;DHT22;156;48.738;9.228;2022-08-16T11:45:18;26.30;1.00
336;DHT22;156;48.738;9.228;2022-08-16T11:47:45;26.00;1.00
336;DHT22;156;48.738;9.228;2022-08-16T11:50:12;26.30;1.00
336;DHT22;156;48.738;9.228;2022-08-16T11:52:39;26.50;1.00
336;DHT22;156;48.738;9.228;2022-08-16T11:55:08;26.80;1.00
336;DHT22;156;48.738;9.228;2022-08-16T11:57:37;26.80;1.00
336;DHT22;156;48.738;9.228;2022-08-16T12:00:08;26.90;1.00
336;DHT22;156;48.738;9.228;2022-08-16T12:02:36;27.00;1.00
336;DHT22;156;48.738;9.228;2022-08-16T12:05:04;27.00;1.00
336;DHT22;156;48.738;9.228;2022-08-16T12:07:31;27.00;1.00
336;DHT22;156;48.738;9.228;2022-08-16T12:09:59;27.30;1.00
336;DHT22;156;48.738;9.228;2022-08-16T12:12:26;27.50;1.00
336;DHT22;156;48.738;9.228;2022-08-16T12:14:54;27.40;1.00
336;DHT22;156;48.738;9.228;2022-08-16T12:17:21;27.60;1.00
336;DHT22;156;48.738;9.228;2022-08-16T12:19:48;27.70;1.00
336;DHT22;156;48.738;9.228;2022-08-16T12:22:15;27.80;1.00
336;DHT22;156;48.738;9.228;2022-08-16T12:24:42;28.00;1.00
336;DHT22;156;48.738;9.228;2022-08-16T12:27:09;28.10;1.00
336;DHT22;156;48.738;9.228;2022-08-16T12:29:36;28.10;1.00
336;DHT22;156;48.738;9.228;2022-08-16T12:32:05;28.10;1.00
336;DHT22;156;48.738;9.228;2022-08-16T12:34:31;27.90;1.00
336;DHT22;156;48.738;9.228;2022-08-16T12:36:59;27.70;1.00
336;DHT22;156;48.738;9.228;2022-08-16T12:39:27;27.30;1.00
336;DHT22;156;48.738;9.228;2022-08-16T12:41:55;27.00;1.00
336;DHT22;156;48.738;9.228;2022-08-16T12:44:22;27.20;1.00
336;DHT22;156;48.738;9.228;2022-08-16T12:46:51;27.60;1.00
336;DHT22;156;48.738;9.228;2022-08-16T12:49:33;27.40;1.00
336;DHT22;156;48.738;9.228;2022-08-16T12:52:01;27.70;1.00
336;DHT22;156;48.738;9.228;2022-08-16T12:54:28;27.70;1.00
336;DHT22;156;48.738;9.228;2022-08-16T12:56:55;27.90;1.00
336;DHT22;156;48.738;9.228;2022-08-16T12:59:22;28.20;1.00
336;DHT22;156;48.738;9.228;2022-08-16T13:01:50;28.30;1.00
336;DHT22;156;48.738;9.228;2022-08-16T13:04:18;28.40;1.00
336;DHT22;156;48.738;9.228;2022-08-16T13:06:47;28.80;1.00
336;DHT22;156;48.738;9.228;2022-08-16T13:09:14;29.20;1.00
336;DHT22;156;48.738;9.228;2022-08-16T13:11:53;29.70;1.00
336;DHT22;156;48.738;9.228;2022-08-16T13:14:27;29.40;1.00
336;DHT22;156;48.738;9.228;2022-08-16T13:16:54;29.60;1.00
336;DHT22;156;48.738;9.228;2022-08-16T13:19:21;30.00;1.00
336;DHT22;156;48.738;9.228;2022-08-16T13:21:49;29.80;1.00
336;DHT22;156;48.738;9.228;2022-08-16T13:24:16;29.80;1.00
336;DHT22;156;48.738;9.228;2022-08-16T13:26:43;30.70;1.00
336;DHT22;156;48.738;9.228;2022-08-16T13:29:10;31.40;1.00
336;DHT22;156;48.738;9.228;2022-08-16T13:31:37;31.90;1.00
336;DHT22;156;48.738;9.228;2022-08-16T13:34:04;32.30;1.00
336;DHT22;156;48.738;9.228;2022-08-16T13:36:31;33.10;1.00
336;DHT22;156;48.738;9.228;2022-08-16T13:38:59;33.60;1.00
336;DHT22;156;48.738;9.228;2022-08-16T13:41:28;33.00;1.00
336;DHT22;156;48.738;9.228;2022-08-16T13:43:56;33.40;1.00
336;DHT22;156;48.738;9.228;2022-08-16T13:46:23;32.70;1.00
336;DHT22;156;48.738;9.228;2022-08-16T13:48:50;32.60;1.00
336;DHT22;156;48.738;9.228;2022-08-16T13:51:21;31.20;1.00
336;DHT22;156;48.738;9.228;2022-08-16T13:53:50;30.10;1.00
336;DHT22;156;48.738;9.228;2022-08-16T13:56:19;29.90;1.00
336;DHT22;156;48.738;9.228;2022-08-16T13:58:48;30.00;1.00
336;DHT22;156;48.738;9.228;2022-08-16T14:01:16;30.70;1.00
336;DHT22;156;48.738;9.228;2022-08-16T14:03:44;32.00;1.00
336;DHT22;156;48.738;9.228;2022-08-16T14:06:12;32.50;1.00
336;DHT22;156;48.738;9.228;2022-08-16T14:08:40;32.80;1.00
336;DHT22;156;48.738;9.228;2022-08-16T14:11:09;32.80;1.00
336;DHT22;156;48.738;9.228;2022-08-16T14:13:39;32.60;1.00
336;DHT22;156;48.738;9.228;2022-08-16T14:16:06;32.50;1.00
336;DHT22;156;48.738;9.228;2022-08-16T14:18:34;31.80;1.00
336;DHT22;156;48.738;9.228;2022-08-16T14:21:00;31.80;1.00
336;DHT22;156;48.738;9.228;2022-08-16T14:23:27;31.50;1.00
336;DHT22;156;48.738;9.228;2022-08-16T14:25:54;31.20;1.00
336;DHT22;156;48.738;9.228;2022-08-16T14:28:22;31.30;1.00
336;DHT22;156;48.738;9.228;2022-08-16T14:30:50;31.20;1.00
336;DHT22;156;48.738;9.228;2022-08-16T14:33:18;30.50;1.00
336;DHT22;156;48.738;9.228;2022-08-16T14:35:45;29.90;1.00
336;DHT22;156;48.738;9.228;2022-08-16T14:38:12;29.40;1.00
336;DHT22;156;48.738;9.228;2022-08-16T14:40:38;29.10;1.00
336;DHT22;156;48.738;9.228;2022-08-16T14:43:07;29.20;1.00
336;DHT22;156;48.738;9.228;2022-08-16T14:45:34;29.50;1.00
336;DHT22;156;48.738;9.228;2022-08-16T14:48:03;30.30;1.00
336;DHT22;156;48.738;9.228;2022-08-16T14:50:30;30.10;1.00
336;DHT22;156;48.738;9.228;2022-08-16T14:53:00;30.60;1.00
336;DHT22;156;48.738;9.228;2022-08-16T14:55:28;30.70;1.00
336;DHT22;156;48.738;9.228;2022-08-16T14:57:56;30.70;1.00
336;DHT22;156;48.738;9.228;2022-08-16T15:00:25;30.40;1.00
336;DHT22;156;48.738;9.228;2022-08-16T15:02:55;30.20;1.00
336;DHT22;156;48.738;9.228;2022-08-16T15:05:26;29.70;1.00
336;DHT22;156;48.738;9.228;2022-08-16T15:07:54;29.20;1.00
336;DHT22;156;48.738;9.228;2022-08-16T15:10:21;29.50;1.00
336;DHT22;156;48.738;9.228;2022-08-16T15:12:49;30.10;1.00
336;DHT22;156;48.738;9.228;2022-08-16T15:15:19;30.50;1.00
336;DHT22;156;48.738;9.228;2022-08-16T15:17:47;30.40;1.00
336;DHT22;156;48.738;9.228;2022-08-16T15:20:15;30.60;1.00
336;DHT22;156;48.738;9.228;2022-08-16T15:22:46;30.80;1.00
336;DHT22;156;48.738;9.228;2022-08-16T15:25:16;31.20;1.00
336;DHT22;156;48.738;9.228;2022-08-16T15:27:44;31.10;1.00
336;DHT22;156;48.738;9.228;2022-08-16T15:30:16;30.90;1.00
336;DHT22;156;48.738;9.228;2022-08-16T15:32:43;31.20;1.00
336;DHT22;156;48.738;9.228;2022-08-16T15:35:12;30.70;1.00
336;DHT22;156;48.738;9.228;2022-08-16T15:37:39;30.50;1.00
336;DHT22;156;48.738;9.228;2022-08-16T15:40:11;30.70;1.00
336;DHT22;156;48.738;9.228;2022-08-16T15:42:40;31.20;1.00
336;DHT22;156;48.738;9.228;2022-08-16T15:45:09;30.80;1.00
336;DHT22;156;48.738;9.228;2022-08-16T15:47:36;30.60;1.00
336;DHT22;156;48.738;9.228;2022-08-16T15:50:04;30.40;1.00
336;DHT22;156;48.738;9.228;2022-08-16T15:52:33;30.40;1.00
336;DHT22;156;48.738;9.228;2022-08-16T15:55:03;30.10;1.00
336;DHT22;156;48.738;9.228;2022-08-16T15:57:32;30.30;1.00
336;DHT22;156;48.738;9.228;2022-08-16T15:59:59;30.90;1.00
336;DHT22;156;48.738;9.228;2022-08-16T16:02:30;31.00;1.00
336;DHT22;156;48.738;9.228;2022-08-16T16:05:02;31.60;1.00
336;DHT22;156;48.738;9.228;2022-08-16T16:07:32;31.50;1.00
336;DHT22;156;48.738;9.228;2022-08-16T16:10:00;30.90;1.00
336;DHT22;156;48.738;9.228;2022-08-16T16:12:28;30.90;1.00
336;DHT22;156;48.738;9.228;2022-08-16T16:14:56;31.20;1.00
336;DHT22;156;48.738;9.228;2022-08-16T16:17:23;30.80;1.00
336;DHT22;156;48.738;9.228;2022-08-16T16:19:50;30.60;1.00
336;DHT22;156;48.738;9.228;2022-08-16T16:22:17;30.30;1.00
336;DHT22;156;48.738;9.228;2022-08-16T16:24:44;30.40;1.00
336;DHT22;156;48.738;9.228;2022-08-16T16:27:13;30.50;1.00
336;DHT22;156;48.738;9.228;2022-08-16T16:29:40;30.10;1.00
336;DHT22;156;48.738;9.228;2022-08-16T16:32:08;29.40;1.00
336;DHT22;156;48.738;9.228;2022-08-16T16:34:35;29.40;1.00
336;DHT22;156;48.738;9.228;2022-08-16T16:37:03;29.50;1.00
336;DHT22;156;48.738;9.228;2022-08-16T16:39:30;29.90;1.00
336;DHT22;156;48.738;9.228;2022-08-16T16:41:57;30.30;1.00
336;DHT22;156;48.738;9.228;2022-08-16T16:44:24;30.90;1.00
336;DHT22;156;48.738;9.228;2022-08-16T16:46:51;31.40;1.00
336;DHT22;156;48.738;9.228;2022-08-16T16:49:19;31.50;1.00